Main page
METAR-TAF:

METAR-TAF

Airports :

Solenzara Air Base

Solenzara, France

latitude: 41-55N, longitude: 009-24E, elevation: 8 m

Current weather observation

The report was made 25 minutes ago, at 19:00 UTC
Wind 7 kt from the West
Temperature 10°C
Humidity 53%
Pressure 1020 hPa
Visibility 10 km or more
no clouds below 1500 m and no cumulonimbus

METAR: LFKS 281900Z AUTO 27007KT CAVOK 10/01 Q1020

Time: 20:25 (19:25 UTC)

Forecast

The report was made 3 hours and 25 minutes ago, at 16:00 UTC
Forecast valid from 28 at 16 UTC to 29 at 15 UTC
Wind 5 kt from the South/Southeast
Visibility 10 km or more
no clouds below 1500 m and no cumulonimbus

TAF: LFKS 281600Z 2816/2915 15005KT CAVOK

Weather observations and forecasts of more than 4000 airports (METAR and TAF reports).

The available stations are represented by yellow and red dots on the map.

Hover mouse over dot to see the name of the station.

Then click to see weather observations and forecasts.

To change the map : click on the green buttons with a black cross to zoom in, on the green button with a dash to zoom out, or on the green arrows for adjacent maps.


METAR-TAF: